Time;durP1;ratioP1;P1;durP2;ratioP2;P2;SDS_P1;SDS_P2;PMS_P1;PMS_P2;Temp;Humidity;BMP_temperature;BMP_pressure;BME280_temperature;BME280_humidity;BME280_pressure;Samples;Min_cycle;Max_cycle;Signal;HPM_P1;HPM_P2
2023/09/11 00:00:35;;;;;;;18.23;10.10;;;21.90;99.90;;;;;;4996187;28;20848;-78
2023/09/11 00:03:02;;;;;;;12.67;10.27;;;21.80;99.90;;;;;;5001673;28;20453;-79
2023/09/11 00:05:31;;;;;;;16.77;10.70;;;21.80;99.90;;;;;;4988757;28;20564;-78
2023/09/11 00:07:58;;;;;;;12.40;9.87;;;21.80;99.90;;;;;;5008929;28;20459;-77
2023/09/11 00:10:25;;;;;;;14.20;10.60;;;21.80;99.90;;;;;;5014861;28;20472;-79
2023/09/11 00:12:53;;;;;;;15.50;10.90;;;21.80;99.90;;;;;;5008009;28;20493;-80
2023/09/11 00:15:20;;;;;;;10.80;9.67;;;21.80;99.90;;;;;;5012051;28;20466;-78
2023/09/11 00:17:46;;;;;;;15.20;11.60;;;21.70;99.90;;;;;;5016261;28;20858;-77
2023/09/11 00:20:13;;;;;;;15.20;11.80;;;21.70;99.90;;;;;;5016170;28;20462;-79
2023/09/11 00:22:40;;;;;;;18.20;11.87;;;21.70;99.90;;;;;;5016491;28;20456;-77
2023/09/11 00:25:08;;;;;;;14.80;10.40;;;21.70;99.90;;;;;;5009112;28;20570;-78
2023/09/11 00:27:36;;;;;;;14.93;10.83;;;21.70;99.90;;;;;;5015594;28;20450;-80
2023/09/11 00:30:04;;;;;;;14.40;12.37;;;21.70;99.90;;;;;;5010073;28;20468;-77
2023/09/11 00:32:31;;;;;;;16.73;11.53;;;21.60;99.90;;;;;;5016225;28;20529;-78
2023/09/11 00:34:58;;;;;;;15.83;11.20;;;21.60;99.90;;;;;;5016499;28;20565;-78
2023/09/11 00:37:31;;;;;;;14.40;12.87;;;21.60;99.90;;;;;;5014505;28;20560;-78
2023/09/11 00:39:57;;;;;;;15.00;11.43;;;21.60;99.90;;;;;;5016776;28;20446;-79
2023/09/11 00:42:24;;;;;;;12.97;11.53;;;21.60;99.90;;;;;;5005062;28;20456;-78
2023/09/11 00:44:52;;;;;;;21.40;12.90;;;21.50;99.90;;;;;;5016119;28;20484;-76
2023/09/11 00:47:21;;;;;;;14.07;11.63;;;21.50;99.90;;;;;;5015631;28;20489;-77
2023/09/11 00:49:48;;;;;;;16.63;13.00;;;21.50;99.90;;;;;;5015381;28;20544;-77
2023/09/11 00:52:17;;;;;;;19.67;13.43;;;21.50;99.90;;;;;;4995940;28;21015;-78
2023/09/11 00:54:44;;;;;;;13.90;12.00;;;21.50;99.90;;;;;;4996103;28;20508;-76
2023/09/11 00:57:11;;;;;;;16.33;12.30;;;21.50;99.90;;;;;;4997412;28;20469;-79
2023/09/11 00:59:38;;;;;;;16.00;13.33;;;21.50;99.90;;;;;;5014883;28;20454;-79
2023/09/11 01:02:05;;;;;;;17.40;12.40;;;21.40;99.90;;;;;;5014405;28;20446;-79
2023/09/11 01:04:34;;;;;;;16.27;13.03;;;21.40;99.90;;;;;;5014741;28;20474;-80
2023/09/11 01:07:01;;;;;;;16.73;13.73;;;21.40;99.90;;;;;;5019485;28;20461;-78
2023/09/11 01:09:28;;;;;;;16.83;14.30;;;21.40;99.90;;;;;;5017011;28;20544;-78
2023/09/11 01:12:01;;;;;;;15.93;14.30;;;21.40;99.90;;;;;;5011291;28;20493;-77
2023/09/11 01:14:28;;;;;;;14.93;13.47;;;21.40;99.90;;;;;;5016552;28;20477;-81
2023/09/11 01:17:02;;;;;;;17.60;14.60;;;21.30;99.90;;;;;;5016769;28;20454;-77
2023/09/11 01:19:51;;;;;;;17.40;14.83;;;21.30;99.90;;;;;;5014737;28;20545;-79
2023/09/11 01:22:32;;;;;;;20.00;16.10;;;21.30;99.90;;;;;;5016959;28;20873;-78
2023/09/11 01:25:16;;;;;;;16.60;15.00;;;21.30;99.90;;;;;;5016683;28;20477;-77
2023/09/11 01:28:15;;;;;;;18.13;16.20;;;21.30;99.90;;;;;;5016989;28;20447;-77
2023/09/11 01:30:45;;;;;;;17.70;15.77;;;21.30;99.90;;;;;;5016723;28;20489;-80
2023/09/11 01:33:13;;;;;;;19.60;17.33;;;21.20;99.90;;;;;;5013675;28;20497;-77
2023/09/11 01:35:40;;;;;;;20.13;15.93;;;21.20;99.90;;;;;;5003601;28;20462;-76
2023/09/11 01:38:09;;;;;;;20.43;16.67;;;21.20;99.90;;;;;;4995333;28;20457;-79
2023/09/11 01:40:38;;;;;;;18.10;15.40;;;21.20;99.90;;;;;;4997107;28;20466;-77
2023/09/11 01:43:09;;;;;;;20.13;16.47;;;21.10;99.90;;;;;;4996527;28;20545;-77
2023/09/11 01:45:37;;;;;;;22.43;14.80;;;21.10;99.90;;;;;;4997073;28;20836;-77
2023/09/11 01:48:07;;;;;;;22.30;14.67;;;21.10;99.90;;;;;;4996671;28;20454;-79
2023/09/11 01:50:36;;;;;;;22.27;17.07;;;21.10;99.90;;;;;;5009164;28;20845;-78
2023/09/11 01:53:05;;;;;;;21.07;15.77;;;21.10;99.90;;;;;;5015760;28;20863;-77
2023/09/11 01:55:32;;;;;;;18.83;14.87;;;21.10;99.90;;;;;;5015811;28;20453;-78
2023/09/11 01:57:59;;;;;;;19.90;17.23;;;21.10;99.90;;;;;;5011767;28;20465;-79
2023/09/11 02:00:26;;;;;;;17.67;15.87;;;21.10;99.90;;;;;;5015943;28;20457;-77
2023/09/11 02:02:55;;;;;;;20.00;16.90;;;21.10;99.90;;;;;;5011644;28;20460;-80
2023/09/11 02:05:23;;;;;;;20.27;17.03;;;21.10;99.90;;;;;;5015525;28;20540;-77
2023/09/11 02:07:50;;;;;;;17.87;16.03;;;21.00;99.90;;;;;;5016051;28;20450;-79
2023/09/11 02:10:17;;;;;;;18.60;15.50;;;21.00;99.90;;;;;;5015759;28;20965;-77
2023/09/11 02:12:45;;;;;;;19.00;16.50;;;21.00;99.90;;;;;;5015779;28;20493;-78
2023/09/11 02:15:12;;;;;;;22.80;15.73;;;21.00;99.90;;;;;;5015520;28;20485;-77
2023/09/11 02:17:39;;;;;;;22.47;16.80;;;20.90;99.90;;;;;;5010171;28;20454;-77
2023/09/11 02:20:11;;;;;;;17.67;15.87;;;20.90;99.90;;;;;;5016953;28;20536;-79
2023/09/11 02:22:46;;;;;;;20.60;15.43;;;20.90;99.90;;;;;;5016645;28;20458;-78
2023/09/11 02:25:14;;;;;;;16.07;14.27;;;20.90;99.90;;;;;;5017024;28;20504;-78
2023/09/11 02:27:43;;;;;;;15.73;14.03;;;20.90;99.90;;;;;;5019875;28;20461;-77
2023/09/11 02:30:10;;;;;;;14.60;13.07;;;20.90;99.90;;;;;;5015970;28;20461;-79
2023/09/11 02:32:37;;;;;;;17.37;14.67;;;20.80;99.90;;;;;;5017763;28;20589;-80
2023/09/11 02:35:04;;;;;;;18.60;13.57;;;20.80;99.90;;;;;;5018630;28;20476;-78
2023/09/11 02:37:31;;;;;;;20.63;15.93;;;20.80;99.90;;;;;;5009141;28;20467;-78
2023/09/11 02:40:00;;;;;;;16.50;14.80;;;20.80;99.90;;;;;;5019550;28;20897;-78
2023/09/11 02:42:27;;;;;;;18.90;15.37;;;20.80;99.90;;;;;;5018685;28;21184;-78
2023/09/11 02:45:08;;;;;;;16.77;13.57;;;20.80;99.90;;;;;;5016577;28;20484;-79
2023/09/11 02:47:43;;;;;;;15.17;13.70;;;20.80;99.90;;;;;;5013841;28;20453;-80
2023/09/11 02:50:10;;;;;;;18.27;14.40;;;20.80;99.90;;;;;;5018143;28;20454;-77
2023/09/11 02:52:37;;;;;;;14.10;12.70;;;20.70;99.90;;;;;;5017792;28;20848;-80
2023/09/11 02:55:06;;;;;;;15.30;13.70;;;20.80;99.90;;;;;;5021348;28;20480;-78
2023/09/11 02:57:32;;;;;;;17.27;13.47;;;20.70;99.90;;;;;;5011674;28;20557;-80
2023/09/11 03:00:06;;;;;;;17.60;13.33;;;20.70;99.90;;;;;;5018202;28;20461;-79
2023/09/11 03:02:38;;;;;;;17.97;14.40;;;20.70;99.90;;;;;;5020672;28;20453;-79
2023/09/11 03:05:05;;;;;;;15.50;13.47;;;20.60;99.90;;;;;;5021128;28;20529;-79
2023/09/11 03:07:32;;;;;;;16.50;13.80;;;20.70;99.90;;;;;;5014210;28;20936;-79
2023/09/11 03:10:00;;;;;;;14.60;13.20;;;20.70;99.90;;;;;;5031303;28;20450;-77
2023/09/11 03:12:29;;;;;;;18.80;14.97;;;20.60;99.90;;;;;;5011984;28;20481;-80
2023/09/11 03:15:23;;;;;;;14.67;13.00;;;20.60;99.90;;;;;;5021153;28;20485;-79
2023/09/11 03:17:51;;;;;;;17.10;13.77;;;20.60;99.90;;;;;;5003413;28;20458;-80
2023/09/11 03:20:18;;;;;;;16.37;13.53;;;20.60;99.90;;;;;;5015657;28;20458;-78
2023/09/11 03:22:47;;;;;;;18.07;12.97;;;20.50;99.90;;;;;;5015814;28;20462;-80
2023/09/11 03:25:14;;;;;;;15.53;13.50;;;20.50;99.90;;;;;;5015166;28;20504;-78
2023/09/11 03:27:46;;;;;;;15.70;13.50;;;20.50;99.90;;;;;;5018856;28;20544;-80
2023/09/11 03:30:16;;;;;;;15.70;12.47;;;20.50;99.90;;;;;;5018169;28;20454;-80
2023/09/11 03:32:44;;;;;;;16.20;12.17;;;20.50;99.90;;;;;;5009192;28;20501;-79
2023/09/11 03:35:11;;;;;;;19.03;13.77;;;20.50;99.90;;;;;;4996288;28;20665;-79
2023/09/11 03:37:41;;;;;;;15.00;11.90;;;20.50;99.90;;;;;;4997864;28;20461;-78
2023/09/11 03:40:13;;;;;;;13.40;12.10;;;20.50;99.90;;;;;;4998958;28;20502;-80
2023/09/11 03:42:40;;;;;;;19.70;13.47;;;20.40;99.90;;;;;;5012128;28;20901;-80
2023/09/11 03:45:10;;;;;;;13.40;12.10;;;20.40;99.90;;;;;;5007258;28;20549;-80
2023/09/11 03:47:37;;;;;;;16.40;12.77;;;20.40;99.90;;;;;;4996040;28;20490;-80
2023/09/11 03:50:04;;;;;;;13.27;11.90;;;20.40;99.90;;;;;;4998105;28;20465;-81
2023/09/11 03:52:31;;;;;;;17.70;12.97;;;20.40;99.90;;;;;;4998139;28;20498;-81
2023/09/11 03:54:59;;;;;;;17.47;11.90;;;20.40;99.90;;;;;;5017728;28;21048;-79
2023/09/11 03:57:27;;;;;;;15.83;12.73;;;20.40;99.90;;;;;;5012834;28;20453;-77
2023/09/11 03:59:54;;;;;;;15.37;12.20;;;20.40;99.90;;;;;;5015554;28;20460;-80
2023/09/11 04:02:22;;;;;;;14.93;12.23;;;20.30;99.90;;;;;;5015803;28;20482;-80
2023/09/11 04:04:49;;;;;;;15.60;12.70;;;20.30;99.90;;;;;;5016555;28;20492;-80
2023/09/11 04:10:04;;;;;;;14.27;11.87;;;20.30;99.90;;;;;;4986428;28;20443;-79
2023/09/11 04:12:31;;;;;;;19.00;11.97;;;20.30;99.90;;;;;;4997425;28;21061;-79
2023/09/11 04:14:58;;;;;;;15.20;11.87;;;20.30;99.90;;;;;;4997540;28;20874;-77
2023/09/11 04:17:26;;;;;;;13.97;11.60;;;20.30;99.90;;;;;;4998260;28;20450;-79
2023/09/11 04:19:53;;;;;;;14.60;10.33;;;20.30;99.90;;;;;;4996826;28;20459;-81
2023/09/11 04:22:20;;;;;;;13.53;12.10;;;20.30;99.90;;;;;;5016791;28;20464;-79
2023/09/11 04:24:47;;;;;;;12.90;11.10;;;20.30;99.90;;;;;;4997431;28;20521;-79
2023/09/11 04:27:13;;;;;;;14.07;11.47;;;20.20;99.90;;;;;;4991218;28;20458;-79
2023/09/11 04:29:40;;;;;;;11.43;10.40;;;20.30;99.90;;;;;;4994468;28;20526;-80
2023/09/11 04:32:07;;;;;;;12.70;11.00;;;20.20;99.90;;;;;;5014170;28;20949;-81
2023/09/11 04:34:35;;;;;;;14.20;12.37;;;20.20;99.90;;;;;;5016746;28;20852;-81
2023/09/11 04:37:02;;;;;;;13.90;10.87;;;20.20;99.90;;;;;;5016740;28;20453;-81
2023/09/11 04:39:29;;;;;;;13.50;11.10;;;20.20;99.90;;;;;;5015571;28;20974;-81
2023/09/11 04:41:56;;;;;;;13.40;10.70;;;20.20;99.90;;;;;;5015871;28;20958;-79
2023/09/11 04:44:23;;;;;;;12.07;10.73;;;20.10;99.90;;;;;;5015451;28;20473;-79
2023/09/11 04:46:50;;;;;;;13.30;10.57;;;20.10;99.90;;;;;;5004358;28;20460;-81
2023/09/11 04:49:17;;;;;;;12.03;10.17;;;20.10;99.90;;;;;;4997329;28;20529;-82
2023/09/11 04:51:45;;;;;;;14.53;9.73;;;20.10;99.90;;;;;;5001377;28;20464;-77
2023/09/11 04:54:14;;;;;;;11.70;9.67;;;20.10;99.90;;;;;;5012977;28;20501;-75
2023/09/11 04:56:40;;;;;;;15.80;10.63;;;20.10;99.90;;;;;;5001092;28;20668;-74
2023/09/11 04:59:07;;;;;;;14.73;10.07;;;20.10;99.90;;;;;;4993861;28;20553;-76
2023/09/11 05:01:35;;;;;;;13.80;10.57;;;20.10;99.90;;;;;;5006399;28;20462;-76
2023/09/11 05:04:03;;;;;;;11.90;10.70;;;20.10;99.90;;;;;;5003594;28;20510;-74
2023/09/11 05:06:30;;;;;;;14.30;10.67;;;20.10;99.90;;;;;;5013406;28;20925;-78
2023/09/11 05:08:58;;;;;;;13.03;10.20;;;20.00;99.90;;;;;;5010933;28;20473;-76
2023/09/11 05:11:25;;;;;;;12.93;10.27;;;20.10;99.90;;;;;;5017702;28;20453;-79
2023/09/11 05:13:51;;;;;;;12.30;10.47;;;20.10;99.90;;;;;;5034901;23;20500;-85
2023/09/11 05:16:18;;;;;;;11.07;10.00;;;20.00;99.90;;;;;;5011796;28;20457;-84
2023/09/11 05:18:45;;;;;;;11.47;9.23;;;20.10;99.90;;;;;;5012045;28;20457;-85
2023/09/11 05:21:12;;;;;;;11.27;10.17;;;20.00;99.90;;;;;;5011762;28;20934;-84
2023/09/11 05:23:38;;;;;;;14.47;10.30;;;20.10;99.90;;;;;;5011814;28;20461;-84
2023/09/11 05:26:08;;;;;;;13.73;11.00;;;20.10;99.90;;;;;;5011667;28;20804;-85
2023/09/11 05:28:34;;;;;;;13.70;10.70;;;20.10;99.90;;;;;;5012137;28;20811;-83
2023/09/11 05:31:01;;;;;;;12.27;9.97;;;20.10;99.90;;;;;;5012499;28;20472;-85
2023/09/11 05:33:28;;;;;;;17.33;11.40;;;20.10;99.90;;;;;;5012357;28;20994;-84
2023/09/11 05:35:55;;;;;;;14.13;9.70;;;20.10;99.90;;;;;;5012003;28;20946;-85
2023/09/11 05:38:22;;;;;;;13.10;10.63;;;20.10;99.90;;;;;;5012002;28;20459;-84
2023/09/11 05:40:48;;;;;;;12.67;9.40;;;20.10;99.90;;;;;;5012130;28;20463;-84
2023/09/11 05:43:16;;;;;;;12.97;10.37;;;20.10;99.90;;;;;;5011958;28;20449;-84
2023/09/11 05:45:44;;;;;;;14.70;10.17;;;20.20;99.90;;;;;;5011849;28;20491;-84
2023/09/11 05:48:11;;;;;;;11.23;9.33;;;20.20;99.90;;;;;;5011501;28;20488;-84
2023/09/11 05:50:38;;;;;;;17.20;10.07;;;20.20;99.90;;;;;;5016299;28;20450;-85
2023/09/11 05:53:06;;;;;;;12.90;10.40;;;20.20;99.90;;;;;;5022464;28;20664;-84
2023/09/11 05:55:33;;;;;;;12.00;9.80;;;20.30;99.90;;;;;;5020132;28;20486;-82
2023/09/11 05:58:00;;;;;;;15.83;9.50;;;20.30;99.90;;;;;;5016420;28;20454;-83
2023/09/11 06:00:28;;;;;;;13.70;9.53;;;20.30;99.90;;;;;;5017615;28;20518;-83
2023/09/11 06:02:55;;;;;;;16.63;9.90;;;20.30;99.90;;;;;;5011531;28;20461;-83
2023/09/11 06:05:23;;;;;;;12.43;10.10;;;20.40;99.90;;;;;;5019132;28;20553;-83
2023/09/11 06:07:50;;;;;;;21.53;12.00;;;20.40;99.90;;;;;;5015810;28;20454;-83
2023/09/11 06:10:17;;;;;;;21.23;10.00;;;20.50;99.90;;;;;;5007533;28;20533;-83
2023/09/11 06:12:43;;;;;;;12.20;9.80;;;20.50;99.90;;;;;;5007654;28;20519;-85
2023/09/11 06:15:10;;;;;;;15.43;9.50;;;20.50;99.90;;;;;;5007397;28;20585;-83
2023/09/11 06:17:39;;;;;;;12.63;9.20;;;20.50;99.90;;;;;;5007352;28;20537;-83
2023/09/11 06:20:09;;;;;;;15.30;9.80;;;20.60;99.90;;;;;;5006508;28;20477;-82
2023/09/11 06:22:36;;;;;;;13.83;9.77;;;20.60;99.90;;;;;;5006975;28;20542;-83
2023/09/11 06:25:05;;;;;;;18.83;9.60;;;20.70;99.90;;;;;;5006921;28;20502;-83
2023/09/11 06:27:34;;;;;;;17.30;9.90;;;20.70;99.90;;;;;;5013195;28;20552;-82
2023/09/11 06:30:04;;;;;;;11.83;8.97;;;20.70;99.90;;;;;;5018648;28;20466;-82
2023/09/11 06:32:31;;;;;;;13.20;8.83;;;20.80;99.90;;;;;;5020807;28;20466;-83
2023/09/11 06:35:01;;;;;;;13.83;8.87;;;20.80;99.90;;;;;;5006719;28;20500;-83
2023/09/11 06:37:27;;;;;;;12.60;8.07;;;20.90;99.90;;;;;;5004681;28;20545;-82
2023/09/11 06:39:54;;;;;;;11.50;8.47;;;20.90;99.90;;;;;;5012672;28;21050;-87
2023/09/11 06:42:22;;;;;;;11.20;8.20;;;21.00;99.90;;;;;;5017527;28;20458;-81
2023/09/11 06:44:50;;;;;;;12.30;9.40;;;21.00;99.90;;;;;;5002874;28;20538;-80
2023/09/11 06:47:17;;;;;;;12.20;9.10;;;21.00;99.90;;;;;;5003238;28;20550;-81
2023/09/11 06:49:44;;;;;;;13.10;9.27;;;21.10;99.90;;;;;;5002411;28;20554;-81
2023/09/11 06:52:12;;;;;;;15.60;8.50;;;21.20;99.90;;;;;;5001196;28;20465;-81
2023/09/11 06:54:39;;;;;;;10.80;8.70;;;21.20;99.90;;;;;;5002505;28;20498;-82
2023/09/11 06:57:07;;;;;;;8.87;7.90;;;21.30;99.90;;;;;;5002245;28;20464;-80
2023/09/11 06:59:34;;;;;;;8.63;7.60;;;21.40;99.90;;;;;;5011889;28;20463;-82
2023/09/11 07:02:01;;;;;;;13.23;8.60;;;21.40;99.90;;;;;;5001570;28;20451;-82
2023/09/11 07:04:28;;;;;;;11.00;7.97;;;21.50;99.90;;;;;;5013137;28;20550;-82
2023/09/11 07:06:56;;;;;;;10.77;7.70;;;21.50;99.90;;;;;;5004584;28;20455;-81
2023/09/11 07:09:24;;;;;;;11.40;8.20;;;21.50;99.90;;;;;;5013943;28;20545;-81
2023/09/11 07:11:52;;;;;;;11.17;8.00;;;21.60;99.90;;;;;;5019765;28;20537;-80
2023/09/11 07:14:20;;;;;;;12.60;8.07;;;21.70;99.90;;;;;;5001722;28;20509;-81
2023/09/11 07:16:46;;;;;;;12.67;8.20;;;21.80;99.90;;;;;;5002261;28;20530;-81
2023/09/11 07:19:13;;;;;;;15.37;8.60;;;21.80;99.90;;;;;;5019842;28;20458;-80
2023/09/11 07:21:41;;;;;;;11.93;7.70;;;21.90;99.90;;;;;;5021393;28;20541;-81
2023/09/11 07:24:08;;;;;;;9.83;7.20;;;22.00;99.90;;;;;;5019292;28;21011;-81
2023/09/11 07:26:36;;;;;;;11.70;7.77;;;22.10;99.90;;;;;;5008352;28;20538;-81
2023/09/11 07:29:04;;;;;;;10.07;7.00;;;22.20;99.90;;;;;;5001680;28;20912;-82
2023/09/11 07:31:32;;;;;;;11.90;6.63;;;22.30;99.90;;;;;;5001094;28;21129;-82
2023/09/11 07:33:59;;;;;;;14.27;7.90;;;22.30;99.90;;;;;;5001693;28;20489;-83
2023/09/11 07:36:27;;;;;;;10.77;6.53;;;22.40;99.90;;;;;;5015886;28;20441;-84
2023/09/11 07:38:54;;;;;;;11.23;6.47;;;22.60;99.90;;;;;;5000285;28;20458;-84
2023/09/11 07:41:22;;;;;;;9.70;6.50;;;22.60;99.90;;;;;;5007285;28;20540;-83
2023/09/11 07:43:50;;;;;;;9.13;5.93;;;22.70;99.90;;;;;;5007206;28;20473;-84
2023/09/11 07:46:17;;;;;;;12.70;6.53;;;22.80;99.90;;;;;;4996516;28;20461;-84
2023/09/11 07:48:44;;;;;;;13.80;6.27;;;22.80;99.90;;;;;;5000138;28;20465;-83
2023/09/11 07:51:12;;;;;;;10.87;6.40;;;22.80;99.90;;;;;;5000280;28;20904;-82
2023/09/11 07:53:39;;;;;;;7.03;6.03;;;23.00;69.10;;;;;;5007151;28;20516;-83
2023/09/11 07:56:07;;;;;;;10.77;7.17;;;23.10;99.90;;;;;;5003009;28;20565;-82
2023/09/11 07:58:35;;;;;;;8.87;6.20;;;23.20;96.30;;;;;;5000552;28;20447;-83
2023/09/11 08:01:03;;;;;;;7.77;6.67;;;23.20;26.10;;;;;;5001353;28;20473;-83
2023/09/11 08:03:32;;;;;;;9.30;6.10;;;23.40;42.90;;;;;;5001615;28;20475;-83
2023/09/11 08:06:00;;;;;;;10.33;7.00;;;23.40;85.70;;;;;;5001951;28;20518;-82
2023/09/11 08:08:27;;;;;;;7.07;6.07;;;23.50;85.30;;;;;;5002388;28;20775;-83
2023/09/11 08:10:53;;;;;;;11.10;6.97;;;23.60;70.70;;;;;;4998850;28;20458;-83
2023/09/11 08:13:23;;;;;;;8.73;5.33;;;23.60;96.90;;;;;;5001590;28;20537;-83
2023/09/11 08:15:50;;;;;;;10.17;6.53;;;23.70;33.50;;;;;;5001790;28;20454;-81
2023/09/11 08:18:19;;;;;;;12.70;6.70;;;23.80;77.50;;;;;;5007842;28;20481;-83
2023/09/11 08:20:47;;;;;;;8.27;5.90;;;23.80;78.80;;;;;;5017725;28;20461;-81
2023/09/11 08:23:13;;;;;;;12.07;6.93;;;23.80;71.80;;;;;;5016032;28;20454;-82
2023/09/11 08:25:40;;;;;;;11.67;6.93;;;23.90;87.70;;;;;;5000999;28;20468;-83
2023/09/11 08:28:07;;;;;;;9.70;5.80;;;23.90;1.00;;;;;;5000530;28;20450;-83
2023/09/11 08:30:34;;;;;;;8.70;6.40;;;24.00;1.00;;;;;;5000980;28;20459;-82
2023/09/11 08:33:04;;;;;;;9.63;5.93;;;24.10;1.00;;;;;;5001248;28;20588;-83
2023/09/11 08:35:32;;;;;;;9.93;5.90;;;24.20;1.00;;;;;;5000140;28;20494;-82
2023/09/11 08:38:00;;;;;;;10.23;5.20;;;24.40;1.00;;;;;;5012942;28;20466;-83
2023/09/11 08:40:31;;;;;;;6.90;5.03;;;24.50;1.00;;;;;;5008641;28;20462;-82
2023/09/11 08:42:58;;;;;;;11.20;4.80;;;24.90;1.00;;;;;;5005799;28;20450;-83
2023/09/11 08:45:26;;;;;;;8.53;5.60;;;25.20;99.90;;;;;;5018625;28;20505;-83
2023/09/11 08:47:56;;;;;;;7.67;5.00;;;25.30;1.00;;;;;;5007616;28;20477;-82
2023/09/11 08:50:26;;;;;;;7.60;5.10;;;25.30;99.90;;;;;;5001058;28;20533;-81
2023/09/11 08:52:56;;;;;;;9.60;5.43;;;25.30;99.90;;;;;;5015759;28;20524;-83
2023/09/11 08:55:24;;;;;;;6.60;4.80;;;25.30;99.90;;;;;;5008833;28;20498;-82
2023/09/11 08:57:51;;;;;;;9.73;5.50;;;25.30;1.00;;;;;;5011225;28;20480;-82
2023/09/11 09:00:20;;;;;;;9.93;5.90;;;25.40;1.00;;;;;;5020004;28;20454;-81
2023/09/11 09:02:47;;;;;;;11.10;5.53;;;25.30;99.90;;;;;;5013119;28;20988;-81
2023/09/11 09:05:15;;;;;;;11.23;5.53;;;25.30;99.90;;;;;;5010711;28;20537;-82
2023/09/11 09:07:43;;;;;;;12.33;5.30;;;25.40;1.00;;;;;;4999592;28;20458;-81
2023/09/11 09:10:12;;;;;;;12.53;6.50;;;25.50;99.90;;;;;;4999778;28;20527;-83
2023/09/11 09:12:40;;;;;;;8.43;5.00;;;25.50;99.90;;;;;;5000268;28;20529;-82
2023/09/11 09:15:09;;;;;;;9.63;5.67;;;25.60;1.00;;;;;;4998825;28;20853;-81
2023/09/11 09:17:36;;;;;;;9.60;6.67;;;25.70;1.00;;;;;;4999579;28;20462;-82
2023/09/11 09:20:04;;;;;;;12.63;5.40;;;25.80;1.00;;;;;;4999406;28;20842;-82
2023/09/11 09:22:31;;;;;;;8.23;5.47;;;25.90;1.00;;;;;;4999047;28;20463;-82
2023/09/11 09:24:58;;;;;;;8.20;5.37;;;26.00;99.90;;;;;;4999620;28;20481;-82
2023/09/11 09:27:28;;;;;;;17.27;5.20;;;26.20;99.90;;;;;;4999135;28;20446;-82
2023/09/11 09:29:55;;;;;;;8.43;5.03;;;26.40;60.50;;;;;;4999772;28;20461;-82
2023/09/11 09:32:22;;;;;;;6.00;4.60;;;26.50;83.10;;;;;;5012802;28;20458;-82
2023/09/11 09:34:52;;;;;;;9.00;5.50;;;26.60;99.90;;;;;;5023955;28;20508;-82
2023/09/11 09:37:20;;;;;;;10.93;5.43;;;26.90;1.00;;;;;;5025660;28;20528;-81
2023/09/11 09:39:49;;;;;;;11.13;6.10;;;27.00;99.90;;;;;;5027182;28;20525;-81
2023/09/11 09:42:17;;;;;;;7.23;5.20;;;27.20;1.00;;;;;;5008191;28;20543;-82
2023/09/11 09:44:52;;;;;;;8.20;4.20;;;27.50;1.00;;;;;;5003436;28;20478;-82
2023/09/11 09:47:20;;;;;;;10.37;6.00;;;27.70;1.00;;;;;;5003322;28;21044;-82
2023/09/11 09:49:50;;;;;;;7.70;4.63;;;28.00;53.80;;;;;;5003450;28;20457;-83
2023/09/11 09:52:18;;;;;;;9.10;5.27;;;28.10;99.90;;;;;;5003524;28;20478;-82
2023/09/11 09:54:47;;;;;;;5.17;4.63;;;28.10;1.00;;;;;;5003480;28;20490;-83
2023/09/11 09:57:16;;;;;;;9.30;5.00;;;28.40;99.90;;;;;;5002895;28;20493;-82
2023/09/11 09:59:50;;;;;;;8.53;5.47;;;28.70;99.90;;;;;;5003065;28;20888;-82
2023/09/11 10:02:23;;;;;;;9.63;5.10;;;28.90;99.90;;;;;;5002489;28;20972;-82
2023/09/11 10:04:53;;;;;;;10.97;4.57;;;29.20;99.90;;;;;;5002992;28;20475;-83
2023/09/11 10:07:38;;;;;;;9.53;4.93;;;29.40;1.00;;;;;;5003220;28;20534;-82
2023/09/11 10:10:20;;;;;;;5.77;4.50;;;29.60;99.90;;;;;;5003161;28;20446;-82
2023/09/11 10:12:51;;;;;;;10.07;5.60;;;29.80;90.30;;;;;;5003861;28;20521;-82
2023/09/11 10:15:20;;;;;;;6.80;4.80;;;30.10;9.10;;;;;;5003531;28;20506;-82
2023/09/11 10:17:47;;;;;;;13.60;4.73;;;30.30;99.90;;;;;;5002984;28;20466;-82
2023/09/11 10:20:17;;;;;;;10.13;5.87;;;30.50;99.60;;;;;;5003516;28;20454;-81
2023/09/11 10:22:44;;;;;;;7.90;4.87;;;30.60;99.90;;;;;;5003287;28;20525;-82
2023/09/11 10:25:11;;;;;;;10.17;4.93;;;30.70;1.00;;;;;;5012537;28;20484;-82
2023/09/11 10:27:38;;;;;;;6.00;4.87;;;30.90;1.00;;;;;;5005798;28;20465;-83
2023/09/11 10:30:07;;;;;;;8.57;4.87;;;31.00;1.00;;;;;;5002934;28;20458;-82
2023/09/11 10:32:42;;;;;;;9.50;5.00;;;31.10;1.00;;;;;;5002735;28;20465;-83
2023/09/11 10:35:11;;;;;;;8.03;4.90;;;31.30;37.00;;;;;;5002991;28;20577;-83
2023/09/11 10:37:41;;;;;;;8.80;4.40;;;31.30;1.00;;;;;;5003259;28;20461;-83
2023/09/11 10:40:10;;;;;;;13.37;6.10;;;31.20;1.00;;;;;;5003191;28;20449;-84
2023/09/11 10:42:37;;;;;;;11.10;4.60;;;31.30;1.00;;;;;;5014029;28;20459;-83
2023/09/11 10:45:04;;;;;;;9.77;4.97;;;31.50;1.00;;;;;;5018419;28;20906;-82
2023/09/11 10:47:31;;;;;;;9.00;5.77;;;31.40;1.00;;;;;;5002790;28;20522;-82
2023/09/11 10:49:59;;;;;;;6.77;4.57;;;31.70;1.00;;;;;;5013336;28;20530;-84
2023/09/11 10:52:27;;;;;;;13.13;5.70;;;31.90;99.90;;;;;;5003251;28;20493;-83
2023/09/11 10:54:54;;;;;;;13.00;5.23;;;31.70;1.00;;;;;;5004097;28;20585;-83
2023/09/11 10:57:21;;;;;;;9.53;4.97;;;32.00;1.00;;;;;;5018912;28;20462;-83
2023/09/11 10:59:50;;;;;;;8.10;4.83;;;31.90;1.00;;;;;;5018406;28;21018;-82
2023/09/11 11:02:21;;;;;;;8.70;4.37;;;32.00;1.00;;;;;;5022258;28;20553;-84
2023/09/11 11:04:48;;;;;;;9.07;4.90;;;32.30;1.00;;;;;;5023810;28;20537;-84
2023/09/11 11:07:16;;;;;;;8.17;4.40;;;32.40;1.00;;;;;;5012128;28;20462;-82
2023/09/11 11:09:48;;;;;;;7.50;4.63;;;32.60;1.00;;;;;;5010397;28;20463;-83
2023/09/11 11:12:31;;;;;;;6.90;4.83;;;32.80;1.00;;;;;;5020154;28;20825;-82
2023/09/11 11:15:20;;;;;;;6.63;4.97;;;33.00;1.00;;;;;;5003152;28;20500;-84
2023/09/11 11:17:47;;;;;;;7.80;5.10;;;33.00;1.00;;;;;;5043437;23;20884;-78
2023/09/11 11:20:17;;;;;;;14.70;6.40;;;33.20;1.00;;;;;;5014742;28;20457;-79
2023/09/11 11:22:45;;;;;;;9.57;5.30;;;33.20;1.00;;;;;;5016621;28;20545;-77
2023/09/11 11:25:12;;;;;;;10.47;5.40;;;33.30;1.00;;;;;;5016641;28;20442;-77
2023/09/11 11:27:39;;;;;;;7.67;5.53;;;33.40;1.00;;;;;;5012509;28;20523;-78
2023/09/11 11:30:08;;;;;;;12.80;4.97;;;33.40;1.00;;;;;;5007111;28;20455;-79
2023/09/11 11:32:35;;;;;;;5.50;4.30;;;33.40;1.00;;;;;;4997363;28;20454;-80
2023/09/11 11:35:07;;;;;;;13.50;5.63;;;33.70;1.00;;;;;;5007443;28;21308;-80
2023/09/11 11:37:36;;;;;;;12.63;4.90;;;33.70;1.00;;;;;;5004965;28;20478;-79
2023/09/11 11:40:08;;;;;;;9.77;5.47;;;33.90;1.00;;;;;;4998024;28;20469;-78
2023/09/11 11:42:37;;;;;;;12.70;4.60;;;33.90;1.00;;;;;;5001838;28;20458;-77
2023/09/11 11:45:05;;;;;;;7.13;5.10;;;34.00;1.00;;;;;;5007617;28;20450;-79
2023/09/11 11:47:32;;;;;;;9.60;5.40;;;34.00;1.00;;;;;;5001685;28;20533;-77
2023/09/11 11:50:07;;;;;;;7.67;4.80;;;34.30;1.00;;;;;;4995879;28;20489;-78
2023/09/11 11:52:34;;;;;;;8.03;4.43;;;34.20;1.00;;;;;;4995743;28;21004;-79
2023/09/11 11:55:01;;;;;;;11.10;5.27;;;34.20;1.00;;;;;;5008589;28;20497;-79
2023/09/11 11:57:31;;;;;;;7.20;4.60;;;34.40;1.00;;;;;;5009733;28;20904;-78
2023/09/11 11:59:58;;;;;;;14.47;5.60;;;34.50;1.00;;;;;;4994800;28;20466;-77
2023/09/11 12:02:26;;;;;;;7.90;5.47;;;34.50;1.00;;;;;;5007111;28;21198;-78
2023/09/11 12:04:54;;;;;;;7.73;4.67;;;34.70;1.00;;;;;;5010786;28;20486;-79
2023/09/11 12:07:22;;;;;;;13.50;5.87;;;34.70;1.00;;;;;;5004239;28;21239;-78
2023/09/11 12:09:49;;;;;;;9.13;4.80;;;34.90;1.00;;;;;;4994613;28;20845;-79
2023/09/11 12:12:17;;;;;;;7.33;5.70;;;35.20;1.00;;;;;;5011407;28;20456;-78
2023/09/11 12:14:45;;;;;;;7.47;5.30;;;35.20;1.00;;;;;;5014014;28;20978;-78
2023/09/11 12:17:12;;;;;;;6.73;4.90;;;35.40;1.00;;;;;;5004140;28;20485;-78
2023/09/11 12:19:39;;;;;;;11.23;5.40;;;35.60;1.00;;;;;;5008328;28;20537;-78
2023/09/11 12:22:08;;;;;;;8.90;5.37;;;36.00;1.00;;;;;;5013173;28;20537;-77
2023/09/11 12:24:35;;;;;;;5.43;4.90;;;36.30;1.00;;;;;;5009489;28;20467;-77
2023/09/11 12:27:04;;;;;;;7.97;4.83;;;36.00;1.00;;;;;;5006240;28;20497;-80
2023/09/11 12:29:33;;;;;;;7.90;5.10;;;36.20;1.00;;;;;;4997007;28;20468;-77
2023/09/11 12:32:01;;;;;;;7.10;5.17;;;36.20;1.00;;;;;;5006139;28;20512;-79
2023/09/11 12:34:43;;;;;;;8.77;5.70;;;36.00;1.00;;;;;;4995147;28;20955;-79
2023/09/11 12:37:10;;;;;;;8.07;4.87;;;35.70;1.00;;;;;;5001266;28;20477;-79
2023/09/11 12:39:36;;;;;;;7.60;4.30;;;35.80;1.00;;;;;;5012426;28;20962;-78
2023/09/11 12:42:04;;;;;;;11.13;5.77;;;35.80;1.00;;;;;;5009350;28;20451;-78
2023/09/11 12:44:32;;;;;;;11.33;6.07;;;35.70;1.00;;;;;;5004043;28;20469;-78
2023/09/11 12:47:00;;;;;;;8.93;4.90;;;35.70;1.00;;;;;;4995294;28;20480;-78